createdAt,value
2017-10-04T03:32:37.982Z,96.40
2017-10-04T03:35:05.625Z,96.30
2017-10-04T03:37:34.012Z,97.10
2017-10-04T03:40:02.409Z,96.80
2017-10-04T03:42:29.981Z,96.80
2017-10-04T03:44:57.598Z,96.10
2017-10-04T03:47:26.079Z,96.50
2017-10-04T03:49:54.426Z,96.40
2017-10-04T03:52:22.002Z,96.40
2017-10-04T03:54:49.606Z,96.40
2017-10-04T03:57:17.179Z,97.20
2017-10-04T03:59:44.790Z,97.00
2017-10-04T04:02:13.133Z,96.60
2017-10-04T04:04:40.752Z,96.60
2017-10-04T04:07:08.385Z,96.50
2017-10-04T04:09:36.730Z,96.40
2017-10-04T04:12:04.342Z,96.40
2017-10-04T04:14:31.922Z,96.50
2017-10-04T04:16:59.519Z,97.20
2017-10-04T04:19:27.123Z,96.70
2017-10-04T04:21:54.702Z,97.10
2017-10-04T04:24:22.318Z,97.00
2017-10-04T04:26:50.663Z,96.90
2017-10-04T04:29:18.242Z,96.90
2017-10-04T04:31:45.913Z,97.30
2017-10-04T04:34:14.253Z,97.30
2017-10-04T04:36:41.829Z,97.30
2017-10-04T04:39:09.463Z,97.20
2017-10-04T04:41:37.037Z,97.00
2017-10-04T04:44:04.625Z,97.10
2017-10-04T04:46:33.201Z,97.00
2017-10-04T04:49:01.547Z,97.50
2017-10-04T04:51:29.126Z,97.30
2017-10-04T04:53:56.802Z,97.60
2017-10-04T04:56:25.142Z,97.10
2017-10-04T04:58:52.742Z,97.10
2017-10-04T05:01:21.131Z,96.40
2017-10-04T05:03:48.774Z,96.40
2017-10-04T05:06:17.117Z,96.60
2017-10-04T05:08:44.809Z,96.60
2017-10-04T05:11:13.149Z,96.10
2017-10-04T05:13:40.726Z,96.10
2017-10-04T05:16:08.329Z,96.40
2017-10-04T05:18:35.961Z,97.10
2017-10-04T05:21:03.542Z,96.40
2017-10-04T05:23:31.186Z,96.90
2017-10-04T05:25:59.525Z,97.40
2017-10-04T05:28:27.110Z,97.40
2017-10-04T05:30:55.597Z,97.40
2017-10-04T05:33:23.973Z,95.80
2017-10-04T05:35:52.322Z,96.30
2017-10-04T05:38:20.018Z,96.30
2017-10-04T05:40:48.390Z,96.30
2017-10-04T05:43:16.734Z,96.00
2017-10-04T05:45:44.362Z,96.00
2017-10-04T05:48:11.946Z,95.70
2017-10-04T05:50:39.541Z,96.10
2017-10-04T05:53:08.022Z,96.20
2017-10-04T05:55:36.361Z,96.20
2017-10-04T05:58:03.962Z,96.20
2017-10-04T06:00:32.362Z,96.30
2017-10-04T06:03:00.002Z,96.30
2017-10-04T06:05:28.352Z,96.00
2017-10-04T06:07:55.984Z,96.00
2017-10-04T06:10:23.565Z,96.00
2017-10-04T06:12:51.151Z,96.60
2017-10-04T06:15:19.534Z,96.20
2017-10-04T06:17:47.882Z,96.10
2017-10-04T06:20:16.278Z,95.90
2017-10-04T06:22:44.629Z,96.00
2017-10-04T06:25:12.217Z,96.00
2017-10-04T06:27:40.610Z,96.10
2017-10-04T06:30:08.258Z,96.10
2017-10-04T06:32:36.597Z,95.60
2017-10-04T06:35:04.197Z,95.60
2017-10-04T06:37:32.577Z,95.50
2017-10-04T06:40:01.049Z,95.50
2017-10-04T06:42:29.403Z,95.60
2017-10-04T06:44:56.981Z,95.60
2017-10-04T06:47:25.350Z,95.10
2017-10-04T06:49:52.934Z,95.10
2017-10-04T06:52:20.533Z,95.10
2017-10-04T06:54:48.237Z,95.20
2017-10-04T06:57:16.587Z,95.00
2017-10-04T06:59:44.170Z,95.00
2017-10-04T07:02:12.550Z,94.50
2017-10-04T07:04:40.920Z,94.50
2017-10-04T07:07:08.506Z,94.50
2017-10-04T07:09:36.114Z,94.20
2017-10-04T07:12:03.697Z,94.40
2017-10-04T07:14:31.278Z,94.00
2017-10-04T07:16:58.886Z,93.60
2017-10-04T07:19:26.473Z,93.60
2017-10-04T07:21:54.053Z,94.00
2017-10-04T07:24:22.448Z,93.50
2017-10-04T07:26:50.033Z,93.50
2017-10-04T07:29:17.613Z,93.70
2017-10-04T07:31:45.254Z,93.40
2017-10-04T07:34:12.837Z,93.10
2017-10-04T07:36:40.422Z,93.20
2017-10-04T07:39:08.806Z,92.90
2017-10-04T07:41:36.394Z,92.90
2017-10-04T07:44:04.030Z,93.20
2017-10-04T07:46:31.618Z,93.00
2017-10-04T07:48:59.202Z,92.50
2017-10-04T07:51:26.851Z,92.30
2017-10-04T07:53:54.434Z,92.90
2017-10-04T07:56:22.020Z,92.50
2017-10-04T07:58:49.634Z,92.10
2017-10-04T08:01:17.219Z,91.50
2017-10-04T08:03:45.561Z,91.70
2017-10-04T08:06:13.182Z,91.70
2017-10-04T08:08:40.758Z,91.50
2017-10-04T08:11:08.336Z,91.50
2017-10-04T08:13:35.937Z,91.40
2017-10-04T08:16:04.281Z,91.80
2017-10-04T08:18:31.866Z,91.80
2017-10-04T08:21:00.237Z,91.20
2017-10-04T08:23:27.817Z,91.20
2017-10-04T08:25:56.177Z,90.20
2017-10-04T08:28:24.558Z,89.40
2017-10-04T08:30:52.902Z,90.10
2017-10-04T08:33:20.629Z,90.10
2017-10-04T08:35:48.210Z,90.10
2017-10-04T08:38:15.785Z,90.30
2017-10-04T08:40:43.385Z,89.60
2017-10-04T08:43:11.735Z,89.30
2017-10-04T08:45:39.321Z,89.30
2017-10-04T08:48:18.562Z,89.40
2017-10-04T08:50:46.146Z,90.00
2017-10-04T08:53:13.729Z,88.90
2017-10-04T08:55:41.354Z,88.80
2017-10-04T08:58:08.934Z,88.40
2017-10-04T09:00:36.518Z,87.70
2017-10-04T09:03:04.150Z,87.30
2017-10-04T09:05:43.610Z,86.30
2017-10-04T09:08:11.222Z,88.40
2017-10-04T09:10:38.802Z,87.20
2017-10-04T09:13:06.459Z,87.30
2017-10-04T09:15:34.049Z,86.60
2017-10-04T09:18:01.638Z,85.20
2017-10-04T09:20:29.254Z,84.10
2017-10-04T09:22:56.838Z,84.50
2017-10-04T09:25:25.194Z,84.20
2017-10-04T09:27:52.793Z,84.00
2017-10-04T09:30:20.377Z,84.90
2017-10-04T09:32:47.958Z,83.70
2017-10-04T09:35:15.566Z,84.80
2017-10-04T09:37:43.919Z,84.00
2017-10-04T09:40:11.559Z,84.00
2017-10-04T09:42:39.141Z,82.10
2017-10-04T09:45:06.722Z,82.10
2017-10-04T09:47:34.372Z,84.90
2017-10-04T09:50:02.718Z,84.20
2017-10-04T09:52:30.300Z,84.30
2017-10-04T09:54:58.677Z,84.30
2017-10-04T09:57:27.026Z,83.30
2017-10-04T09:59:54.610Z,83.20
2017-10-04T10:02:23.018Z,83.40
2017-10-04T10:04:50.606Z,83.10
2017-10-04T10:07:18.185Z,80.80
2017-10-04T10:09:45.838Z,82.00
2017-10-04T10:12:13.426Z,81.70
2017-10-04T10:14:41.782Z,84.00
2017-10-04T10:17:09.414Z,84.20
2017-10-04T10:19:36.997Z,82.20
2017-10-04T10:22:04.579Z,81.40
2017-10-04T10:24:33.081Z,80.50
2017-10-04T10:27:00.670Z,80.10
2017-10-04T10:29:28.254Z,80.00
2017-10-04T10:31:55.860Z,81.20
2017-10-04T10:34:23.447Z,80.20
2017-10-04T10:36:51.029Z,78.30
2017-10-04T10:39:18.654Z,79.70
2017-10-04T10:41:46.241Z,77.90
2017-10-04T10:44:13.829Z,79.90
2017-10-04T10:46:42.234Z,78.80
2017-10-04T10:49:09.822Z,78.90
2017-10-04T10:51:37.421Z,79.60
2017-10-04T10:54:05.801Z,77.20
2017-10-04T10:56:34.151Z,77.80
2017-10-04T10:59:01.802Z,77.80
2017-10-04T11:01:29.394Z,77.90
2017-10-04T11:03:57.741Z,76.60
2017-10-04T11:06:26.137Z,77.50
2017-10-04T11:08:53.727Z,77.20
2017-10-04T11:11:21.313Z,75.80
2017-10-04T11:13:48.947Z,77.00
2017-10-04T11:16:16.526Z,77.70
2017-10-04T11:18:44.110Z,76.70
2017-10-04T11:21:11.737Z,78.20
2017-10-04T11:23:39.321Z,77.80
2017-10-04T11:26:06.910Z,76.10
2017-10-04T11:28:34.538Z,77.10
2017-10-04T11:31:02.121Z,76.60
2017-10-04T11:33:29.701Z,73.00
2017-10-04T11:35:58.106Z,74.90
2017-10-04T11:38:25.698Z,74.90
2017-10-04T11:40:53.290Z,74.70
2017-10-04T11:43:21.665Z,75.60
2017-10-04T11:45:49.254Z,75.60
2017-10-04T11:48:16.844Z,75.60
2017-10-04T11:50:44.453Z,75.50
2017-10-04T11:53:12.849Z,75.00
2017-10-04T11:55:40.434Z,75.00
2017-10-04T11:58:08.017Z,76.30
2017-10-04T12:00:35.676Z,73.90
2017-10-04T12:03:03.265Z,75.10
2017-10-04T12:05:31.617Z,74.00
2017-10-04T12:07:59.230Z,74.00
2017-10-04T12:10:26.822Z,73.80
2017-10-04T12:12:54.475Z,74.90
2017-10-04T12:15:22.057Z,74.10
2017-10-04T12:17:49.642Z,74.90
2017-10-04T12:20:18.014Z,74.50
2017-10-04T12:22:46.370Z,74.00
2017-10-04T12:25:13.957Z,74.00
2017-10-04T12:27:42.349Z,74.60
2017-10-04T12:30:09.929Z,74.50
2017-10-04T12:32:37.518Z,74.70
2017-10-04T12:35:05.158Z,74.00
2017-10-04T12:37:32.741Z,74.40
2017-10-04T12:40:00.333Z,73.70
2017-10-04T12:42:28.705Z,76.40
2017-10-04T12:44:57.053Z,75.40
2017-10-04T12:47:24.642Z,75.50
2017-10-04T12:49:53.041Z,75.40
2017-10-04T12:52:20.629Z,75.30
2017-10-04T12:54:48.212Z,74.50
2017-10-04T12:57:15.849Z,75.00
2017-10-04T12:59:43.438Z,75.30
2017-10-04T13:02:11.794Z,78.40
2017-10-04T13:04:39.438Z,77.90
2017-10-04T13:07:07.018Z,75.80
2017-10-04T13:09:34.604Z,76.40
2017-10-04T13:12:02.986Z,77.00
2017-10-04T13:14:31.342Z,77.70
2017-10-04T13:16:58.929Z,77.60
2017-10-04T13:19:26.632Z,77.90
2017-10-04T13:21:54.222Z,77.00
2017-10-04T13:24:21.810Z,78.40
2017-10-04T13:26:49.445Z,77.50
2017-10-04T13:29:17.802Z,78.40
2017-10-04T13:31:45.394Z,77.80
2017-10-04T13:34:13.809Z,78.30
2017-10-04T13:36:41.402Z,78.20
2017-10-04T13:39:08.989Z,77.90
2017-10-04T13:41:37.385Z,76.40
2017-10-04T13:44:04.981Z,76.50
2017-10-04T13:46:32.570Z,76.20
2017-10-04T13:49:00.183Z,77.50
2017-10-04T13:51:27.777Z,77.10
2017-10-04T13:53:55.410Z,77.20
2017-10-04T13:56:23.002Z,77.10
2017-10-04T13:58:50.594Z,78.90
2017-10-04T14:01:18.205Z,77.70
2017-10-04T14:03:45.787Z,77.80
2017-10-04T14:06:14.137Z,79.40
2017-10-04T14:08:41.754Z,78.60
2017-10-04T14:11:09.340Z,78.80
2017-10-04T14:13:36.926Z,77.90
2017-10-04T14:16:04.554Z,77.40
2017-10-04T14:18:32.138Z,78.00
2017-10-04T14:20:59.866Z,77.50
2017-10-04T14:23:27.458Z,77.50
2017-10-04T14:25:55.038Z,78.40
2017-10-04T14:28:22.670Z,77.50
2017-10-04T14:30:50.254Z,79.50
2017-10-04T14:33:17.838Z,78.80
2017-10-04T14:35:45.497Z,77.50
2017-10-04T14:38:13.841Z,78.00
2017-10-04T14:40:41.422Z,78.00
2017-10-04T14:43:09.830Z,79.30
2017-10-04T14:45:37.412Z,79.10
2017-10-04T14:48:04.998Z,77.50
2017-10-04T14:50:32.622Z,76.90
2017-10-04T14:53:00.215Z,78.30
2017-10-04T14:55:27.794Z,79.00
2017-10-04T14:57:56.195Z,79.70
2017-10-04T15:00:24.171Z,79.70
2017-10-04T15:02:51.778Z,78.30
2017-10-04T15:05:19.407Z,78.70
2017-10-04T15:07:46.989Z,79.10
2017-10-04T15:10:14.566Z,79.80
2017-10-04T15:12:42.178Z,79.90
2017-10-04T15:15:09.762Z,79.90
2017-10-04T15:17:37.392Z,80.40
2017-10-04T15:20:04.979Z,79.60
2017-10-04T15:22:32.575Z,79.30
2017-10-04T15:25:00.976Z,80.20
2017-10-04T15:27:28.554Z,80.00
2017-10-04T15:29:56.138Z,80.30
2017-10-04T15:32:23.782Z,81.20
2017-10-04T15:34:51.362Z,79.60
2017-10-04T15:37:18.949Z,80.60
2017-10-04T15:39:47.333Z,81.30
2017-10-04T15:42:14.913Z,81.30
2017-10-04T15:44:42.533Z,81.80
2017-10-04T15:47:10.890Z,81.70
2017-10-04T15:49:38.470Z,81.70
2017-10-04T15:52:06.874Z,82.30
2017-10-04T15:54:34.459Z,82.30
2017-10-04T15:57:02.046Z,82.10
2017-10-04T15:59:29.685Z,83.60
2017-10-04T16:01:57.270Z,82.60
2017-10-04T16:04:24.853Z,82.00
2017-10-04T16:06:53.250Z,81.70
2017-10-04T16:09:20.836Z,81.80
2017-10-04T16:11:48.422Z,84.20
2017-10-04T16:14:16.035Z,82.90
2017-10-04T16:16:43.621Z,82.10
2017-10-04T16:19:11.978Z,82.70
2017-10-04T16:21:39.610Z,82.80
2017-10-04T16:24:07.195Z,82.60
2017-10-04T16:26:34.786Z,82.30
2017-10-04T16:29:02.418Z,82.00
2017-10-04T16:31:29.997Z,82.80
2017-10-04T16:33:57.585Z,83.10
2017-10-04T16:36:25.960Z,82.20
2017-10-04T16:38:53.590Z,82.10
2017-10-04T16:41:21.179Z,82.30
2017-10-04T16:43:49.530Z,83.30
2017-10-04T16:46:17.161Z,83.20
2017-10-04T16:48:44.746Z,83.30
2017-10-04T16:51:12.324Z,83.20
2017-10-04T16:53:40.050Z,83.30
2017-10-04T16:56:07.630Z,84.00
2017-10-04T16:58:35.208Z,84.30
2017-10-04T17:01:02.844Z,84.70
2017-10-04T17:03:30.417Z,85.40
2017-10-04T17:05:58.010Z,84.80
2017-10-04T17:08:25.663Z,85.00
2017-10-04T17:10:54.014Z,83.60
2017-10-04T17:13:21.591Z,83.60
2017-10-04T17:15:49.977Z,82.60
2017-10-04T17:18:18.327Z,83.90
2017-10-04T17:20:45.909Z,83.80
2017-10-04T17:23:14.314Z,81.50
2017-10-04T17:25:41.903Z,81.50
2017-10-04T17:28:09.494Z,83.40
2017-10-04T17:30:37.890Z,82.10
2017-10-04T17:33:05.474Z,82.10
2017-10-04T17:35:33.050Z,83.10
2017-10-04T17:38:00.704Z,82.40
2017-10-04T17:40:28.285Z,82.30
2017-10-04T17:42:55.866Z,82.60
2017-10-04T17:45:24.286Z,82.40
2017-10-04T17:47:51.866Z,82.20
2017-10-04T17:50:19.445Z,82.80
2017-10-04T17:52:47.064Z,83.30
2017-10-04T17:55:14.646Z,83.00
2017-10-04T17:57:42.258Z,81.50
2017-10-04T18:00:09.895Z,82.40
2017-10-04T18:02:37.474Z,81.40
2017-10-04T18:05:05.813Z,82.40
2017-10-04T18:07:33.435Z,82.40
2017-10-04T18:10:01.018Z,81.80
2017-10-04T18:12:28.598Z,82.40
2017-10-04T18:14:56.225Z,83.90
2017-10-04T18:17:23.830Z,82.40
2017-10-04T18:19:52.179Z,81.40
2017-10-04T18:22:19.783Z,81.40
2017-10-04T18:24:47.369Z,81.90
2017-10-04T18:27:14.994Z,81.90
2017-10-04T18:29:43.354Z,81.70
2017-10-04T18:32:10.938Z,81.70
2017-10-04T18:34:38.570Z,82.00
2017-10-04T18:37:06.154Z,82.00
2017-10-04T18:39:34.493Z,82.70
2017-10-04T18:42:02.117Z,82.60
2017-10-04T18:44:29.700Z,82.00
2017-10-04T18:46:57.277Z,81.40
2017-10-04T18:49:24.903Z,82.00
2017-10-04T18:51:53.329Z,81.70
2017-10-04T18:54:21.674Z,82.30
2017-10-04T18:56:49.302Z,82.30
2017-10-04T18:59:16.878Z,84.10
2017-10-04T19:01:44.478Z,83.10
2017-10-04T19:04:12.822Z,84.50
2017-10-04T19:06:40.401Z,84.60
2017-10-04T19:09:08.342Z,83.70
2017-10-04T19:11:35.917Z,84.20
2017-10-04T19:14:03.502Z,84.20
2017-10-04T19:16:31.900Z,84.40
2017-10-04T19:18:59.486Z,84.40
2017-10-04T19:21:27.280Z,84.20
2017-10-04T19:23:54.898Z,84.90
2017-10-04T19:26:22.482Z,84.60
2017-10-04T19:28:50.882Z,84.70
2017-10-04T19:31:18.466Z,84.70
2017-10-04T19:33:46.814Z,85.20
2017-10-04T19:36:14.438Z,85.10
2017-10-04T19:38:42.017Z,85.50
2017-10-04T19:41:09.629Z,86.20
2017-10-04T19:43:37.286Z,86.00
2017-10-04T19:46:05.635Z,85.40
2017-10-04T19:48:33.226Z,85.40
2017-10-04T19:51:00.863Z,85.40
2017-10-04T19:53:29.236Z,85.90
2017-10-04T19:55:56.813Z,85.90
2017-10-04T19:58:25.210Z,86.40
2017-10-04T20:00:52.805Z,86.50
2017-10-04T20:03:20.389Z,85.70
2017-10-04T20:05:47.989Z,86.10
2017-10-04T20:08:15.573Z,86.40
2017-10-04T20:10:43.182Z,86.30
2017-10-04T20:13:11.534Z,86.30
2017-10-04T20:15:39.119Z,86.30
2017-10-04T20:18:07.513Z,87.20
2017-10-04T20:20:35.095Z,87.20
2017-10-04T20:23:02.674Z,86.20
2017-10-04T20:25:30.309Z,86.60
2017-10-04T20:27:57.894Z,86.80
2017-10-04T20:30:25.469Z,86.50
2017-10-04T20:32:53.093Z,86.40
2017-10-04T20:35:20.677Z,86.60
2017-10-04T20:37:48.263Z,85.90
2017-10-04T20:40:16.637Z,86.40
2017-10-04T20:42:44.981Z,87.00
2017-10-04T20:45:12.602Z,87.00
2017-10-04T20:47:40.186Z,86.10
2017-10-04T20:50:07.765Z,86.60
2017-10-04T20:52:35.382Z,87.00
2017-10-04T20:55:02.963Z,88.00
2017-10-04T20:57:30.541Z,87.40
2017-10-04T20:59:58.273Z,86.30
2017-10-04T21:02:25.853Z,86.60
2017-10-04T21:04:53.442Z,86.60
2017-10-04T21:07:21.840Z,86.80
2017-10-04T21:09:49.427Z,86.80
2017-10-04T21:12:17.015Z,86.60
2017-10-04T21:14:44.756Z,86.50
2017-10-04T21:17:12.330Z,87.00
2017-10-04T21:19:39.974Z,86.50
2017-10-04T21:22:07.608Z,86.50
2017-10-04T21:24:35.193Z,86.60
2017-10-04T21:27:02.774Z,86.60
2017-10-04T21:29:30.403Z,86.70
2017-10-04T21:31:57.989Z,86.60
2017-10-04T21:34:25.569Z,86.30
2017-10-04T21:36:53.966Z,86.40
2017-10-04T21:39:22.313Z,86.50
2017-10-04T21:41:49.898Z,86.50
2017-10-04T21:44:18.270Z,86.50
2017-10-04T21:46:46.685Z,87.20
2017-10-04T21:49:14.319Z,87.00
2017-10-04T21:51:41.905Z,86.90
2017-10-04T21:54:09.487Z,86.40
2017-10-04T21:56:37.103Z,86.40
2017-10-04T21:59:04.689Z,87.00
2017-10-04T22:01:32.265Z,86.30
2017-10-04T22:03:59.893Z,86.10
2017-10-04T22:06:27.477Z,86.60
2017-10-04T22:08:55.054Z,87.00
2017-10-04T22:11:22.682Z,86.60
2017-10-04T22:13:50.263Z,86.30
2017-10-04T22:16:17.841Z,86.30
2017-10-04T22:18:45.461Z,86.60
2017-10-04T22:21:13.038Z,86.20
2017-10-04T22:23:40.613Z,86.10
2017-10-04T22:26:08.230Z,85.60
2017-10-04T22:28:35.809Z,86.20
